createdAt,value
2019-05-07T00:01:55.231Z,6.90
2019-05-07T00:03:56.152Z,6.80
2019-05-07T00:05:57.413Z,6.70
2019-05-07T00:07:59.836Z,6.70
2019-05-07T00:10:03.688Z,6.70
2019-05-07T00:12:07.742Z,6.90
2019-05-07T00:14:09.017Z,6.90
2019-05-07T00:16:12.719Z,6.80
2019-05-07T00:18:14.103Z,6.80
2019-05-07T00:20:16.369Z,6.70
2019-05-07T00:22:17.739Z,6.60
2019-05-07T00:24:19.018Z,6.70
2019-05-07T00:26:22.560Z,6.70
2019-05-07T00:28:23.987Z,6.60
2019-05-07T00:30:25.542Z,6.50
2019-05-07T00:32:27.247Z,6.60
2019-05-07T00:34:32.813Z,6.60
2019-05-07T00:36:36.459Z,6.50
2019-05-07T00:38:39.904Z,6.60
2019-05-07T00:40:52.478Z,6.70
2019-05-07T00:43:05.163Z,6.60
2019-05-07T00:45:17.892Z,6.50
2019-05-07T00:47:15.245Z,6.60
2019-05-07T00:49:17.306Z,6.80
2019-05-07T00:51:29.777Z,7.10
2019-05-07T00:53:32.880Z,7.20
2019-05-07T00:55:34.550Z,7.40
2019-05-07T00:57:35.957Z,7.40
2019-05-07T00:59:37.492Z,7.50
2019-05-07T01:01:38.833Z,7.70
2019-05-07T01:03:42.295Z,7.60
2019-05-07T01:05:43.566Z,7.70
2019-05-07T01:07:44.836Z,7.70
2019-05-07T01:09:46.098Z,7.70
2019-05-07T01:11:47.701Z,7.70
2019-05-07T01:13:49.359Z,7.70
2019-05-07T01:15:50.516Z,7.70
2019-05-07T01:17:52.103Z,7.70
2019-05-07T01:19:53.577Z,7.70
2019-05-07T01:21:54.828Z,7.60
2019-05-07T01:23:56.094Z,7.70
2019-05-07T01:25:57.453Z,7.60
2019-05-07T01:27:58.725Z,7.60
2019-05-07T01:30:02.485Z,7.60
2019-05-07T01:32:07.260Z,7.50
2019-05-07T01:34:13.334Z,7.50
2019-05-07T01:36:16.507Z,7.40
2019-05-07T01:38:18.791Z,7.40
2019-05-07T01:40:20.149Z,7.30
2019-05-07T01:42:22.143Z,7.10
2019-05-07T01:44:23.798Z,7.00
2019-05-07T01:46:25.125Z,7.00
2019-05-07T01:48:26.641Z,7.00
2019-05-07T01:50:27.927Z,7.10
2019-05-07T01:52:29.193Z,7.10
2019-05-07T01:54:32.957Z,7.10
2019-05-07T01:56:33.971Z,7.10
2019-05-07T01:58:35.252Z,7.10
2019-05-07T02:00:36.528Z,7.00
2019-05-07T02:02:42.591Z,7.00
2019-05-07T02:04:52.197Z,6.90
2019-05-07T02:06:55.571Z,6.80
2019-05-07T02:09:04.540Z,6.90
2019-05-07T02:11:12.912Z,6.90
2019-05-07T02:13:14.447Z,6.80
2019-05-07T02:15:16.053Z,6.80
2019-05-07T02:17:17.317Z,6.80
2019-05-07T02:19:18.662Z,6.70
2019-05-07T02:21:21.933Z,6.60
2019-05-07T02:23:23.118Z,6.50
2019-05-07T02:25:24.711Z,6.60
2019-05-07T02:27:26.138Z,6.60
2019-05-07T02:29:27.536Z,6.60
2019-05-07T02:31:28.853Z,6.40
2019-05-07T02:33:30.248Z,6.40
2019-05-07T02:35:33.246Z,6.40
2019-05-07T02:37:48.485Z,6.50
2019-05-07T02:39:44.306Z,6.60
2019-05-07T02:41:44.963Z,6.50
2019-05-07T02:43:46.570Z,6.50
2019-05-07T02:45:53.620Z,6.50
2019-05-07T02:47:55.402Z,6.50
2019-05-07T02:50:07.164Z,6.60
2019-05-07T02:52:13.626Z,6.50
2019-05-07T02:54:19.695Z,6.40
2019-05-07T02:56:23.625Z,6.20
2019-05-07T02:58:25.099Z,6.10
2019-05-07T03:00:26.426Z,6.00
2019-05-07T03:02:28.167Z,5.90
2019-05-07T03:04:33.100Z,5.70
2019-05-07T03:06:34.020Z,5.70
2019-05-07T03:08:35.623Z,5.90
2019-05-07T03:10:36.901Z,5.90
2019-05-07T03:12:38.379Z,6.00
2019-05-07T03:14:39.752Z,6.00
2019-05-07T03:16:47.582Z,5.90
2019-05-07T03:18:44.721Z,5.80
2019-05-07T03:20:48.375Z,5.70
2019-05-07T03:22:50.107Z,5.60
2019-05-07T03:24:55.907Z,5.60
2019-05-07T03:26:58.399Z,5.50
2019-05-07T03:29:04.437Z,5.30
2019-05-07T03:31:07.748Z,5.10
2019-05-07T03:33:16.047Z,5.00
2019-05-07T03:35:18.954Z,4.90
2019-05-07T03:37:23.398Z,4.70
2019-05-07T03:39:25.932Z,4.70
2019-05-07T03:41:27.420Z,4.80
2019-05-07T03:43:28.986Z,4.80
2019-05-07T03:45:48.535Z,4.60
2019-05-07T03:47:54.162Z,4.50
2019-05-07T03:49:58.113Z,4.50
2019-05-07T03:51:59.656Z,4.50
2019-05-07T03:54:03.037Z,4.60
2019-05-07T03:56:04.681Z,4.60
2019-05-07T03:58:06.511Z,4.70
2019-05-07T04:00:09.029Z,4.60
2019-05-07T04:02:13.885Z,4.60
2019-05-07T04:04:14.004Z,4.70
2019-05-07T04:06:15.302Z,4.70
2019-05-07T04:08:16.596Z,4.80
2019-05-07T04:10:17.981Z,4.70
2019-05-07T04:12:19.338Z,4.70
2019-05-07T04:14:23.149Z,4.70
2019-05-07T04:16:24.225Z,4.70
2019-05-07T04:18:25.836Z,4.70
2019-05-07T04:20:33.035Z,4.70
2019-05-07T04:22:34.529Z,4.90
2019-05-07T04:24:38.228Z,4.90
2019-05-07T04:26:47.190Z,4.80
2019-05-07T04:29:05.598Z,4.70
2019-05-07T04:31:05.855Z,4.80
2019-05-07T04:33:09.081Z,5.00
2019-05-07T04:35:15.664Z,5.10
2019-05-07T04:37:17.347Z,5.20
2019-05-07T04:39:22.940Z,5.40
2019-05-07T04:41:23.668Z,5.50
2019-05-07T04:43:25.156Z,5.50
2019-05-07T04:45:26.411Z,5.50
2019-05-07T04:47:38.439Z,5.50
2019-05-07T04:49:33.217Z,5.50
2019-05-07T04:51:38.893Z,5.30
2019-05-07T04:53:42.960Z,5.30
2019-05-07T04:55:43.741Z,5.40
2019-05-07T04:57:45.403Z,5.60
2019-05-07T04:59:46.765Z,5.50
2019-05-07T05:01:49.986Z,5.60
2019-05-07T05:03:54.077Z,5.60
2019-05-07T05:05:55.516Z,5.50
2019-05-07T05:07:56.860Z,5.50
2019-05-07T05:09:58.227Z,5.70
2019-05-07T05:11:59.495Z,5.90
2019-05-07T05:14:02.807Z,5.80
2019-05-07T05:16:22.887Z,5.70
2019-05-07T05:18:24.158Z,5.70
2019-05-07T05:20:27.329Z,5.90
2019-05-07T05:22:31.772Z,6.10
2019-05-07T05:24:43.753Z,6.20
2019-05-07T05:26:45.286Z,5.80
2019-05-07T05:28:46.562Z,6.00
2019-05-07T05:30:52.860Z,6.00
2019-05-07T05:32:54.237Z,6.20
2019-05-07T05:34:57.833Z,6.40
2019-05-07T05:36:59.186Z,6.60
2019-05-07T05:39:02.485Z,6.70
2019-05-07T05:41:04.752Z,6.90
2019-05-07T05:43:24.681Z,6.90
2019-05-07T05:45:33.463Z,7.00
2019-05-07T05:47:34.981Z,7.20
2019-05-07T05:49:36.327Z,7.30
2019-05-07T05:51:43.007Z,7.40
2019-05-07T05:53:46.426Z,7.40
2019-05-07T05:55:48.097Z,7.50
2019-05-07T05:57:51.950Z,7.60
2019-05-07T05:59:55.667Z,7.70
2019-05-07T06:02:02.526Z,7.70
2019-05-07T06:04:23.254Z,7.80
2019-05-07T06:06:38.340Z,7.80
2019-05-07T06:08:56.939Z,8.00
2019-05-07T06:11:03.173Z,8.00
2019-05-07T06:13:09.206Z,7.90
2019-05-07T06:15:27.723Z,7.40
2019-05-07T06:17:42.991Z,7.50
2019-05-07T06:19:52.515Z,7.40
2019-05-07T06:21:58.273Z,7.30
2019-05-07T06:24:13.510Z,7.30
2019-05-07T06:26:14.785Z,7.50
2019-05-07T06:28:17.151Z,7.70
2019-05-07T06:30:19.141Z,7.70
2019-05-07T06:32:22.761Z,7.50
2019-05-07T06:34:23.575Z,7.70
2019-05-07T06:36:24.853Z,7.70
2019-05-07T06:38:28.031Z,7.90
2019-05-07T06:40:37.382Z,8.20
2019-05-07T06:42:42.668Z,8.40
2019-05-07T06:44:45.729Z,8.60
2019-05-07T06:46:46.989Z,8.70
2019-05-07T06:48:48.410Z,8.80
2019-05-07T06:50:58.226Z,8.80
2019-05-07T06:52:59.645Z,8.70
2019-05-07T06:55:03.379Z,8.30
2019-05-07T06:57:04.397Z,8.40
2019-05-07T06:59:12.815Z,8.50
2019-05-07T07:01:24.108Z,8.60
2019-05-07T07:03:33.017Z,8.00
2019-05-07T07:05:36.261Z,7.90
2019-05-07T07:07:42.454Z,8.00
2019-05-07T07:09:45.634Z,7.80
2019-05-07T07:11:48.843Z,8.10
2019-05-07T07:13:51.995Z,8.30
2019-05-07T07:15:53.450Z,8.60
2019-05-07T07:17:55.051Z,8.80
2019-05-07T07:19:56.193Z,8.90
2019-05-07T07:21:57.468Z,8.90
2019-05-07T07:23:58.825Z,9.10
2019-05-07T07:26:00.108Z,9.10
2019-05-07T07:28:02.814Z,9.30
2019-05-07T07:30:13.606Z,9.30
2019-05-07T07:32:16.779Z,9.50
2019-05-07T07:34:18.079Z,9.70
2019-05-07T07:36:22.551Z,9.80
2019-05-07T07:38:33.618Z,9.90
2019-05-07T07:40:42.728Z,9.90
2019-05-07T07:42:44.074Z,10.00
2019-05-07T07:44:45.605Z,10.00
2019-05-07T07:46:46.882Z,9.90
2019-05-07T07:48:48.158Z,10.00
2019-05-07T07:50:49.727Z,10.10
2019-05-07T07:52:53.010Z,10.10
2019-05-07T07:54:54.538Z,10.20
2019-05-07T07:57:03.267Z,10.00
2019-05-07T07:59:07.035Z,9.70
2019-05-07T08:01:18.868Z,9.80
2019-05-07T08:03:22.597Z,9.90
2019-05-07T08:05:23.901Z,9.80
2019-05-07T08:07:25.559Z,9.90
2019-05-07T08:09:26.710Z,10.10
2019-05-07T08:11:28.250Z,10.00
2019-05-07T08:13:29.578Z,9.70
2019-05-07T08:15:33.003Z,9.50
2019-05-07T08:17:34.531Z,9.80
2019-05-07T08:19:35.894Z,10.00
2019-05-07T08:21:37.189Z,9.90
2019-05-07T08:23:38.454Z,9.70
2019-05-07T08:25:49.098Z,9.90
2019-05-07T08:27:52.299Z,10.20
2019-05-07T08:29:53.880Z,10.00
2019-05-07T08:31:59.589Z,10.00
2019-05-07T08:34:18.283Z,10.10
2019-05-07T08:36:22.472Z,10.10
2019-05-07T08:38:23.842Z,10.20
2019-05-07T08:40:24.980Z,10.60
2019-05-07T08:42:26.254Z,10.90
2019-05-07T08:44:47.274Z,11.10
2019-05-07T08:46:59.769Z,10.50
2019-05-07T08:49:01.952Z,10.80
2019-05-07T08:51:04.385Z,11.00
2019-05-07T08:53:05.770Z,10.80
2019-05-07T08:55:07.036Z,10.60
2019-05-07T08:57:08.393Z,10.60
2019-05-07T08:59:09.661Z,10.70
2019-05-07T09:01:11.857Z,10.90
2019-05-07T09:03:22.211Z,11.10
2019-05-07T09:05:19.186Z,11.20
2019-05-07T09:07:21.946Z,11.40
2019-05-07T09:09:23.466Z,11.60
2019-05-07T09:11:24.634Z,11.00
2019-05-07T09:13:25.902Z,11.10
2019-05-07T09:15:29.126Z,10.70
2019-05-07T09:17:31.864Z,10.70
2019-05-07T09:19:46.904Z,10.50
2019-05-07T09:21:36.822Z,10.40
2019-05-07T09:23:38.123Z,10.70
2019-05-07T09:25:41.653Z,10.80
2019-05-07T09:27:45.080Z,11.10
2019-05-07T09:29:48.282Z,11.40
2019-05-07T09:31:52.587Z,11.50
2019-05-07T09:33:55.902Z,11.10
2019-05-07T09:35:57.683Z,10.90
2019-05-07T09:37:58.946Z,10.90
2019-05-07T09:40:02.575Z,11.20
2019-05-07T09:42:03.615Z,11.20
2019-05-07T09:44:04.887Z,11.10
2019-05-07T09:46:06.263Z,11.30
2019-05-07T09:48:07.551Z,11.40
2019-05-07T09:50:09.285Z,11.50
2019-05-07T09:52:12.263Z,11.60
2019-05-07T09:54:13.580Z,11.80
2019-05-07T09:56:14.732Z,11.80
2019-05-07T09:58:15.894Z,12.00
2019-05-07T10:00:17.846Z,11.90
2019-05-07T10:02:19.099Z,11.90
2019-05-07T10:04:22.239Z,12.20
2019-05-07T10:06:23.578Z,12.00
2019-05-07T10:08:24.741Z,12.50
2019-05-07T10:10:25.884Z,12.90
2019-05-07T10:12:32.998Z,13.00
2019-05-07T10:14:34.366Z,13.30
2019-05-07T10:16:52.701Z,13.40
2019-05-07T10:18:53.921Z,13.40
2019-05-07T10:20:55.441Z,13.30
2019-05-07T10:22:57.213Z,12.90
2019-05-07T10:24:58.932Z,12.70
2019-05-07T10:27:02.225Z,11.90
2019-05-07T10:29:03.675Z,11.40
2019-05-07T10:31:04.825Z,11.50
2019-05-07T10:33:05.999Z,11.50
2019-05-07T10:35:07.543Z,11.20
2019-05-07T10:37:08.715Z,11.30
2019-05-07T10:39:12.864Z,11.40
2019-05-07T10:41:14.420Z,11.10
2019-05-07T10:43:15.703Z,10.80
2019-05-07T10:45:22.489Z,10.80
2019-05-07T10:47:31.793Z,11.00
2019-05-07T10:49:34.981Z,11.20
2019-05-07T10:51:36.254Z,11.00
2019-05-07T10:53:37.523Z,11.50
2019-05-07T10:55:38.725Z,11.80
2019-05-07T10:57:41.746Z,12.00
2019-05-07T10:59:43.088Z,12.50
2019-05-07T11:01:46.185Z,12.70
2019-05-07T11:03:47.357Z,12.10
2019-05-07T11:05:48.516Z,11.90
2019-05-07T11:07:49.694Z,12.10
2019-05-07T11:09:52.517Z,12.00
2019-05-07T11:11:53.860Z,11.90
2019-05-07T11:13:56.123Z,12.10
2019-05-07T11:15:59.369Z,11.90
2019-05-07T11:18:08.335Z,11.90
2019-05-07T11:20:24.679Z,12.30
2019-05-07T11:22:26.453Z,12.20
2019-05-07T11:24:28.098Z,11.80
2019-05-07T11:26:29.750Z,11.60
2019-05-07T11:28:32.388Z,12.00
2019-05-07T11:30:33.794Z,12.10
2019-05-07T11:32:34.940Z,12.20
2019-05-07T11:34:36.821Z,12.10
2019-05-07T11:36:37.965Z,12.00
2019-05-07T11:38:39.243Z,12.30
2019-05-07T11:40:42.703Z,11.60
2019-05-07T11:43:02.578Z,12.00
2019-05-07T11:45:05.751Z,12.10
2019-05-07T11:47:23.762Z,12.40
2019-05-07T11:49:29.714Z,12.80
2019-05-07T11:51:33.445Z,12.70
2019-05-07T11:53:36.815Z,12.90
2019-05-07T11:55:37.986Z,13.70
2019-05-07T11:57:39.247Z,14.60
2019-05-07T11:59:41.848Z,14.60
2019-05-07T12:01:47.794Z,15.10
2019-05-07T12:03:48.983Z,15.20
2019-05-07T12:05:50.193Z,14.40
2019-05-07T12:07:51.345Z,14.50
2019-05-07T12:09:52.711Z,14.50
2019-05-07T12:11:53.971Z,15.10
2019-05-07T12:13:57.313Z,15.00
2019-05-07T12:15:58.400Z,14.90
2019-05-07T12:17:59.562Z,15.80
2019-05-07T12:20:02.372Z,15.90
2019-05-07T12:22:05.806Z,15.90
2019-05-07T12:24:06.998Z,16.40
2019-05-07T12:26:08.202Z,16.70
2019-05-07T12:28:10.481Z,17.10
2019-05-07T12:30:14.654Z,16.70
2019-05-07T12:32:23.751Z,16.30
2019-05-07T12:34:31.755Z,15.40
2019-05-07T12:36:32.690Z,15.70
2019-05-07T12:38:33.870Z,15.90
2019-05-07T12:40:35.414Z,16.10
2019-05-07T12:42:36.902Z,16.80
2019-05-07T12:44:38.051Z,16.90
2019-05-07T12:46:39.240Z,17.60
2019-05-07T12:48:40.422Z,16.50
2019-05-07T12:50:43.226Z,16.00
2019-05-07T12:52:46.361Z,16.70
2019-05-07T12:54:52.510Z,17.00
2019-05-07T12:56:53.866Z,17.20
2019-05-07T12:58:55.330Z,17.00
2019-05-07T13:01:01.053Z,17.90
2019-05-07T13:03:04.102Z,18.40
2019-05-07T13:05:05.393Z,18.80
2019-05-07T13:07:14.386Z,18.40
2019-05-07T13:09:15.561Z,17.80
2019-05-07T13:11:16.721Z,16.70
2019-05-07T13:13:17.881Z,17.50
2019-05-07T13:15:25.026Z,17.30
2019-05-07T13:17:22.546Z,17.50
2019-05-07T13:19:23.907Z,17.30
2019-05-07T13:21:25.061Z,17.40
2019-05-07T13:23:26.215Z,18.00
2019-05-07T13:25:28.271Z,18.00
2019-05-07T13:27:31.854Z,18.00
2019-05-07T13:29:32.894Z,18.10
2019-05-07T13:31:34.381Z,17.20
2019-05-07T13:33:36.955Z,17.40
2019-05-07T13:35:39.702Z,17.10
2019-05-07T13:37:43.422Z,17.80
2019-05-07T13:39:55.637Z,18.20
2019-05-07T13:42:02.050Z,17.40
2019-05-07T13:44:05.427Z,17.40
2019-05-07T13:46:15.520Z,16.40
2019-05-07T13:48:19.479Z,16.70
2019-05-07T13:50:22.132Z,17.30
2019-05-07T13:52:23.540Z,17.00
2019-05-07T13:54:24.835Z,16.90
2019-05-07T13:56:26.120Z,17.40
2019-05-07T13:58:27.454Z,17.70
2019-05-07T14:00:33.200Z,18.20
2019-05-07T14:02:34.431Z,18.60
2019-05-07T14:04:35.593Z,19.00
2019-05-07T14:06:39.973Z,19.80
2019-05-07T14:08:43.185Z,20.60
2019-05-07T14:10:44.746Z,21.20
2019-05-07T14:12:46.498Z,21.50
2019-05-07T14:14:47.653Z,19.90
2019-05-07T14:16:49.409Z,20.10
2019-05-07T14:18:50.557Z,20.30
2019-05-07T14:20:51.734Z,19.40
2019-05-07T14:22:53.019Z,20.20
2019-05-07T14:24:54.189Z,21.10
2019-05-07T14:26:55.378Z,21.90
2019-05-07T14:28:56.514Z,22.50
2019-05-07T14:30:59.113Z,22.80
2019-05-07T14:33:02.160Z,22.90
2019-05-07T14:35:22.709Z,22.80
2019-05-07T14:37:26.391Z,22.60
2019-05-07T14:39:27.551Z,20.20
2019-05-07T14:41:28.697Z,20.70
2019-05-07T14:43:37.668Z,20.30
2019-05-07T14:45:39.214Z,19.80
2019-05-07T14:47:44.472Z,18.60
2019-05-07T14:49:44.267Z,19.60
2019-05-07T14:51:45.630Z,20.40
2019-05-07T14:53:46.801Z,21.20
2019-05-07T14:55:47.974Z,20.00
2019-05-07T14:57:49.658Z,18.60
2019-05-07T14:59:52.440Z,16.10
2019-05-07T15:01:54.084Z,15.90
2019-05-07T15:03:55.637Z,16.60
2019-05-07T15:05:56.870Z,16.70
2019-05-07T15:08:08.309Z,17.40
2019-05-07T15:10:14.090Z,17.90
2019-05-07T15:12:15.742Z,18.40
2019-05-07T15:14:17.160Z,18.90
2019-05-07T15:16:19.374Z,18.40
2019-05-07T15:18:28.354Z,18.10
2019-05-07T15:20:29.506Z,18.10
2019-05-07T15:22:45.528Z,18.00
2019-05-07T15:24:35.898Z,17.30
2019-05-07T15:26:37.085Z,17.30
2019-05-07T15:28:41.782Z,17.40
2019-05-07T15:30:52.412Z,17.60
2019-05-07T15:32:53.641Z,17.60
2019-05-07T15:34:54.858Z,17.20
2019-05-07T15:36:56.006Z,17.30
2019-05-07T15:38:57.448Z,17.30
2019-05-07T15:40:58.581Z,17.40
2019-05-07T15:43:02.015Z,17.30
2019-05-07T15:45:03.927Z,17.20
2019-05-07T15:47:06.990Z,17.10
2019-05-07T15:49:08.148Z,17.20
2019-05-07T15:51:09.282Z,17.20
2019-05-07T15:53:29.201Z,17.20
2019-05-07T15:55:30.814Z,17.20
2019-05-07T15:57:32.868Z,17.10
2019-05-07T15:59:34.125Z,16.30
2019-05-07T16:01:35.268Z,16.30
2019-05-07T16:03:38.349Z,15.90
2019-05-07T16:05:39.519Z,15.50
2019-05-07T16:07:41.998Z,15.60
2019-05-07T16:09:43.262Z,15.50
2019-05-07T16:11:46.358Z,15.00
2019-05-07T16:14:04.644Z,14.90
2019-05-07T16:16:05.786Z,14.90
2019-05-07T16:18:23.625Z,14.00
2019-05-07T16:20:24.029Z,13.90
2019-05-07T16:22:27.197Z,13.70
2019-05-07T16:24:28.458Z,13.30
2019-05-07T16:26:29.601Z,13.40
2019-05-07T16:28:32.435Z,13.30
2019-05-07T16:30:33.766Z,13.40
2019-05-07T16:32:34.910Z,13.20
2019-05-07T16:34:36.070Z,13.10
2019-05-07T16:36:37.223Z,12.70
2019-05-07T16:38:41.952Z,12.50
2019-05-07T16:40:43.789Z,12.70
2019-05-07T16:42:44.934Z,12.70
2019-05-07T16:44:46.084Z,12.90
2019-05-07T16:46:47.396Z,13.20
2019-05-07T16:48:48.647Z,13.70
2019-05-07T16:50:52.114Z,13.70
2019-05-07T16:52:53.084Z,13.90
2019-05-07T16:54:54.630Z,14.20
2019-05-07T16:57:14.450Z,14.20
2019-05-07T16:59:15.629Z,14.20
2019-05-07T17:01:17.087Z,13.90
2019-05-07T17:03:20.221Z,13.30
2019-05-07T17:05:22.928Z,13.00
2019-05-07T17:07:24.787Z,12.70
2019-05-07T17:09:27.632Z,12.50
2019-05-07T17:11:28.790Z,12.70
2019-05-07T17:13:31.773Z,12.60
2019-05-07T17:15:35.919Z,12.60
2019-05-07T17:17:37.071Z,12.80
2019-05-07T17:19:39.639Z,12.70
2019-05-07T17:21:42.927Z,12.50
2019-05-07T17:23:44.760Z,12.50
2019-05-07T17:25:46.331Z,12.50
2019-05-07T17:27:48.605Z,12.60
2019-05-07T17:29:51.953Z,12.50
2019-05-07T17:31:53.334Z,12.60
2019-05-07T17:33:54.480Z,12.50
2019-05-07T17:35:55.732Z,12.50
2019-05-07T17:38:06.398Z,12.70
2019-05-07T17:40:00.130Z,13.00
2019-05-07T17:42:02.526Z,13.00
2019-05-07T17:44:05.979Z,13.20
2019-05-07T17:46:07.177Z,12.80
2019-05-07T17:48:08.313Z,12.70
2019-05-07T17:50:12.681Z,12.70
2019-05-07T17:52:13.992Z,12.50
2019-05-07T17:54:15.142Z,12.60
2019-05-07T17:56:16.301Z,12.40
2019-05-07T17:58:17.898Z,12.20
2019-05-07T18:00:22.004Z,12.10
2019-05-07T18:02:42.150Z,12.20
2019-05-07T18:04:51.013Z,12.20
2019-05-07T18:06:48.185Z,12.00
2019-05-07T18:08:49.365Z,11.90
2019-05-07T18:10:50.522Z,11.80
2019-05-07T18:12:53.685Z,11.80
2019-05-07T18:14:54.733Z,11.80
2019-05-07T18:16:57.791Z,12.00
2019-05-07T18:18:59.170Z,12.20
2019-05-07T18:21:02.274Z,12.00
2019-05-07T18:23:03.589Z,11.80
2019-05-07T18:25:04.830Z,11.90
2019-05-07T18:27:07.822Z,11.90
2019-05-07T18:29:09.043Z,11.80
2019-05-07T18:31:12.577Z,11.90
2019-05-07T18:33:15.593Z,12.10
2019-05-07T18:35:16.862Z,12.40
2019-05-07T18:37:19.534Z,12.50
2019-05-07T18:39:21.548Z,12.70
2019-05-07T18:41:22.856Z,12.60
2019-05-07T18:43:24.093Z,12.70
2019-05-07T18:45:25.432Z,12.80
2019-05-07T18:47:26.689Z,12.70
2019-05-07T18:49:27.860Z,12.80
2019-05-07T18:51:29.016Z,12.80
2019-05-07T18:53:31.846Z,12.80
2019-05-07T18:55:33.180Z,12.90
2019-05-07T18:57:34.417Z,13.00
2019-05-07T18:59:36.412Z,13.00
2019-05-07T19:01:39.589Z,13.00
2019-05-07T19:03:42.012Z,13.00
2019-05-07T19:05:43.925Z,13.00
2019-05-07T19:07:45.571Z,13.00
2019-05-07T19:09:47.886Z,13.10
2019-05-07T19:11:49.402Z,13.10
2019-05-07T19:13:52.504Z,13.00
2019-05-07T19:15:56.624Z,13.10
2019-05-07T19:17:57.123Z,13.00
2019-05-07T19:19:58.962Z,12.90
2019-05-07T19:22:02.099Z,12.90
2019-05-07T19:24:03.595Z,12.90
2019-05-07T19:26:04.920Z,12.90
2019-05-07T19:28:06.281Z,12.90
2019-05-07T19:30:09.860Z,12.80
2019-05-07T19:32:12.634Z,12.80
2019-05-07T19:34:13.898Z,12.80
2019-05-07T19:36:15.193Z,12.80
2019-05-07T19:38:16.765Z,12.60
2019-05-07T19:40:18.006Z,12.60
2019-05-07T19:42:19.348Z,12.50
2019-05-07T19:44:20.770Z,12.50
2019-05-07T19:46:22.826Z,12.40
2019-05-07T19:48:24.332Z,12.40
2019-05-07T19:50:25.603Z,12.40
2019-05-07T19:52:26.882Z,12.20
2019-05-07T19:54:28.150Z,12.20
2019-05-07T19:56:29.518Z,12.20
2019-05-07T19:58:32.717Z,12.10
2019-05-07T20:00:34.383Z,12.00
2019-05-07T20:02:52.767Z,12.00
2019-05-07T20:04:54.447Z,12.00
2019-05-07T20:06:58.631Z,11.90
2019-05-07T20:09:09.944Z,11.80
2019-05-07T20:11:09.498Z,11.80
2019-05-07T20:13:12.517Z,11.70
2019-05-07T20:15:14.581Z,11.70
2019-05-07T20:17:15.885Z,11.70
2019-05-07T20:19:17.233Z,11.60
2019-05-07T20:21:18.518Z,11.60
2019-05-07T20:23:22.770Z,11.50
2019-05-07T20:25:24.080Z,11.40
2019-05-07T20:27:25.339Z,11.30
2019-05-07T20:29:26.498Z,11.30
2019-05-07T20:33:25.957Z,11.30
2019-05-07T20:35:27.150Z,11.20
2019-05-07T20:37:28.414Z,11.20
2019-05-07T20:39:32.278Z,11.10
2019-05-07T20:41:34.278Z,11.10
2019-05-07T20:43:35.762Z,10.90
2019-05-07T20:45:36.977Z,10.90
2019-05-07T20:47:38.129Z,10.90
2019-05-07T20:49:39.485Z,10.80
2019-05-07T20:51:41.894Z,10.80
2019-05-07T20:53:52.248Z,10.70
2019-05-07T20:56:02.341Z,10.70
2019-05-07T20:58:03.818Z,10.60
2019-05-07T21:00:07.270Z,10.60
2019-05-07T21:02:11.862Z,10.50
2019-05-07T21:04:13.677Z,10.50
2019-05-07T21:06:14.945Z,10.40
2019-05-07T21:08:16.220Z,10.40
2019-05-07T21:10:17.489Z,10.30
2019-05-07T21:12:18.783Z,10.30
2019-05-07T21:14:20.077Z,10.30
2019-05-07T21:16:22.093Z,10.20
2019-05-07T21:18:23.744Z,10.10
2019-05-07T21:20:25.354Z,10.10
2019-05-07T21:22:26.714Z,10.00
2019-05-07T21:24:27.999Z,10.00
2019-05-07T21:26:29.257Z,10.00
2019-05-07T21:28:32.369Z,9.90
2019-05-07T21:30:33.731Z,9.90
2019-05-07T21:32:35.008Z,9.80
2019-05-07T21:34:36.287Z,9.80
2019-05-07T21:36:37.554Z,9.70
2019-05-07T21:38:38.830Z,9.60
2019-05-07T21:40:40.114Z,9.60
2019-05-07T21:42:42.591Z,9.60
2019-05-07T21:44:43.985Z,9.50
2019-05-07T21:46:45.251Z,9.50
2019-05-07T21:48:46.631Z,9.50
2019-05-07T21:50:47.980Z,9.40
2019-05-07T21:52:51.462Z,9.40
2019-05-07T21:55:12.859Z,9.40
2019-05-07T21:57:19.207Z,9.30
2019-05-07T21:59:25.210Z,9.30
2019-05-07T22:01:34.221Z,9.20
2019-05-07T22:03:35.599Z,9.20
2019-05-07T22:05:36.869Z,9.10
2019-05-07T22:07:38.167Z,9.10
2019-05-07T22:09:39.787Z,9.00
2019-05-07T22:11:42.726Z,9.00
2019-05-07T22:13:44.241Z,8.90
2019-05-07T22:15:45.846Z,8.90
2019-05-07T22:17:47.002Z,8.90
2019-05-07T22:19:48.288Z,8.90
2019-05-07T22:21:49.562Z,8.80
2019-05-07T22:23:52.204Z,8.80
2019-05-07T22:25:54.070Z,8.70
2019-05-07T22:27:57.639Z,8.70
2019-05-07T22:29:59.093Z,8.60
2019-05-07T22:32:08.186Z,8.60
2019-05-07T22:34:28.499Z,8.60
2019-05-07T22:36:32.668Z,8.50
2019-05-07T22:38:52.852Z,8.50
2019-05-07T22:40:56.074Z,8.40
2019-05-07T22:42:57.447Z,8.40
2019-05-07T22:44:58.740Z,8.40
2019-05-07T22:47:01.929Z,8.40
2019-05-07T22:49:03.514Z,8.40
2019-05-07T22:51:04.871Z,8.30
2019-05-07T22:53:06.185Z,8.30
2019-05-07T22:55:07.658Z,8.20
2019-05-07T22:57:17.083Z,8.20
2019-05-07T22:59:18.361Z,8.10
2019-05-07T23:01:19.644Z,8.10
2019-05-07T23:03:22.852Z,8.10
2019-05-07T23:05:24.074Z,8.00
2019-05-07T23:07:25.605Z,8.00
2019-05-07T23:09:26.926Z,7.90
2019-05-07T23:11:28.450Z,7.80
2019-05-07T23:13:31.846Z,7.80
2019-05-07T23:15:33.194Z,7.80
2019-05-07T23:17:34.517Z,7.80
2019-05-07T23:32:58.130Z,7.60
2019-05-07T23:35:01.910Z,7.60
2019-05-07T23:37:04.329Z,7.50
2019-05-07T23:39:07.219Z,7.40
2019-05-07T23:41:13.598Z,7.40
2019-05-07T23:43:19.563Z,7.40
2019-05-07T23:45:22.088Z,7.30
2019-05-07T23:47:23.794Z,7.30
2019-05-07T23:49:25.307Z,7.30
2019-05-07T23:51:26.625Z,7.20
2019-05-07T23:53:28.209Z,7.20
2019-05-07T23:55:31.716Z,7.20
2019-05-07T23:57:32.704Z,7.10
2019-05-07T23:59:34.080Z,7.10
